createdAt,value
2022-08-04T00:01:28.672Z,97742.43
2022-08-04T00:04:04.187Z,97741.27
2022-08-04T00:06:56.353Z,97741.28
2022-08-04T00:09:39.929Z,97740.38
2022-08-04T00:12:12.274Z,97741.78
2022-08-04T00:14:50.708Z,97740.52
2022-08-04T00:17:21.775Z,97743.48
2022-08-04T00:19:56.531Z,97745.95
2022-08-04T00:22:30.161Z,97742.95
2022-08-04T00:25:03.126Z,97742.79
2022-08-04T00:27:32.458Z,97741.84
2022-08-04T00:30:06.824Z,97744.29
2022-08-04T00:32:35.334Z,97747.98
2022-08-04T00:35:03.870Z,97747.20
2022-08-04T00:37:34.155Z,97747.80
2022-08-04T00:40:09.819Z,97748.80
2022-08-04T00:42:59.255Z,97748.70
2022-08-04T00:46:20.630Z,97748.02
2022-08-04T00:49:17.629Z,97745.83
2022-08-04T00:52:32.013Z,97747.64
2022-08-04T00:55:19.067Z,97747.23
2022-08-04T00:58:14.366Z,97750.34
2022-08-04T01:01:04.280Z,97752.48
2022-08-04T01:03:58.989Z,97753.70
2022-08-04T01:06:36.353Z,97751.23
2022-08-04T01:09:32.224Z,97757.01
2022-08-04T01:12:10.422Z,97758.09
2022-08-04T01:15:07.797Z,97755.48
2022-08-04T01:17:35.756Z,97757.64
2022-08-04T01:20:09.394Z,97759.06
2022-08-04T01:22:40.381Z,97753.40
2022-08-04T01:25:39.915Z,97752.46
2022-08-04T01:28:22.227Z,97753.98
2022-08-04T01:31:06.776Z,97756.13
2022-08-04T01:34:03.329Z,97758.70
2022-08-04T01:36:30.653Z,97758.97
2022-08-04T01:38:59.190Z,97756.45
2022-08-04T01:41:32.633Z,97754.45
2022-08-04T01:44:03.082Z,97753.34
2022-08-04T01:46:34.526Z,97752.63
2022-08-04T01:49:03.200Z,97751.78
2022-08-04T01:51:36.304Z,97749.42
2022-08-04T01:54:04.486Z,97750.00
2022-08-04T01:56:32.661Z,97750.45
2022-08-04T01:59:03.469Z,97750.77
2022-08-04T02:01:36.567Z,97750.05
2022-08-04T02:04:22.257Z,97751.81
2022-08-04T02:07:40.803Z,97750.59
2022-08-04T02:10:15.399Z,97745.61
2022-08-04T02:12:56.192Z,97744.08
2022-08-04T02:15:30.950Z,97747.05
2022-08-04T02:18:26.609Z,97744.24
2022-08-04T02:21:04.382Z,97743.73
2022-08-04T02:23:36.985Z,97744.04
2022-08-04T02:26:26.427Z,97744.65
2022-08-04T02:29:27.295Z,97743.83
2022-08-04T02:32:11.672Z,97742.27
2022-08-04T02:34:47.883Z,97744.21
2022-08-04T02:37:21.014Z,97745.83
2022-08-04T02:39:53.851Z,97742.69
2022-08-04T02:42:22.945Z,97743.66
2022-08-04T02:44:52.388Z,97742.16
2022-08-04T02:47:22.152Z,97738.77
2022-08-04T02:49:52.686Z,97739.96
2022-08-04T02:52:21.782Z,97739.23
2022-08-04T02:54:54.219Z,97740.78
2022-08-04T02:57:26.901Z,97739.73
2022-08-04T03:00:14.669Z,97737.39
2022-08-04T03:02:54.601Z,97739.86
2022-08-04T03:05:57.668Z,97740.38
2022-08-04T03:08:25.028Z,97739.13
2022-08-04T03:11:17.718Z,97742.23
2022-08-04T03:14:00.978Z,97744.19
2022-08-04T03:17:08.091Z,97748.20
2022-08-04T03:20:00.870Z,97745.06
2022-08-04T03:23:12.169Z,97748.30
2022-08-04T03:26:06.572Z,97748.46
2022-08-04T03:28:46.506Z,97749.19
2022-08-04T03:31:47.807Z,97749.97
2022-08-04T03:34:55.116Z,97751.48
2022-08-04T03:37:32.004Z,97747.89
2022-08-04T03:40:24.511Z,97750.51
2022-08-04T03:43:58.879Z,97754.33
2022-08-04T03:46:19.155Z,97760.80
2022-08-04T03:49:24.482Z,97764.63
2022-08-04T03:52:40.317Z,97762.98
2022-08-04T03:55:23.618Z,97767.27
2022-08-04T03:58:18.347Z,97769.77
2022-08-04T04:01:01.004Z,97772.37
2022-08-04T04:03:57.723Z,97771.55
2022-08-04T04:06:44.857Z,97770.11
2022-08-04T04:09:22.041Z,97765.86
2022-08-04T04:12:22.413Z,97767.27
2022-08-04T04:14:59.608Z,97769.17
2022-08-04T04:17:41.130Z,97770.69
2022-08-04T04:20:18.140Z,97771.48
2022-08-04T04:23:25.036Z,97769.90
2022-08-04T04:26:12.724Z,97771.23
2022-08-04T04:28:53.730Z,97772.92
2022-08-04T04:31:27.273Z,97773.00
2022-08-04T04:34:24.556Z,97774.61
2022-08-04T04:37:07.721Z,97775.23
2022-08-04T04:39:49.605Z,97776.40
2022-08-04T04:42:29.550Z,97776.81
2022-08-04T04:45:41.101Z,97777.84
2022-08-04T04:48:41.856Z,97778.45
2022-08-04T04:51:48.149Z,97782.16
2022-08-04T04:54:22.010Z,97776.92
2022-08-04T04:57:02.340Z,97776.63
2022-08-04T04:59:36.990Z,97774.39
2022-08-04T05:02:25.399Z,97770.56
2022-08-04T05:05:15.029Z,97777.35
2022-08-04T05:07:57.749Z,97777.84
2022-08-04T05:11:04.799Z,97781.60
2022-08-04T05:14:37.544Z,97782.52
2022-08-04T05:16:37.751Z,97779.19
2022-08-04T05:19:21.028Z,97784.24
2022-08-04T05:21:57.353Z,97784.75
2022-08-04T05:24:28.462Z,97783.23
2022-08-04T05:27:12.216Z,97783.67
2022-08-04T05:29:57.640Z,97782.98
2022-08-04T05:32:32.939Z,97780.31
2022-08-04T05:35:07.579Z,97780.16
2022-08-04T05:37:39.903Z,97781.02
2022-08-04T05:40:10.958Z,97781.94
2022-08-04T05:42:41.484Z,97780.67
2022-08-04T05:45:10.627Z,97780.53
2022-08-04T05:47:39.469Z,97779.08
2022-08-04T05:50:08.837Z,97780.36
2022-08-04T05:52:38.064Z,97784.52
2022-08-04T05:55:08.458Z,97784.34
2022-08-04T05:57:39.231Z,97787.00
2022-08-04T06:00:31.819Z,97787.47
2022-08-04T06:02:59.228Z,97785.27
2022-08-04T06:05:28.587Z,97784.84
2022-08-04T06:08:12.198Z,97782.69
2022-08-04T06:10:43.293Z,97783.65
2022-08-04T06:13:47.643Z,97779.58
2022-08-04T06:16:05.941Z,97777.91
2022-08-04T06:20:02.029Z,97777.39
2022-08-04T06:21:28.517Z,97780.15
2022-08-04T06:24:03.938Z,97777.85
2022-08-04T06:26:35.165Z,97776.58
2022-08-04T06:29:05.330Z,97776.37
2022-08-04T06:32:27.916Z,97775.06
2022-08-04T06:34:35.876Z,97774.76
2022-08-04T06:37:05.815Z,97772.84
2022-08-04T06:39:35.802Z,97769.67
2022-08-04T06:42:22.125Z,97769.28
2022-08-04T06:44:57.996Z,97767.63
2022-08-04T06:47:27.417Z,97763.34
2022-08-04T06:51:31.860Z,97762.13
2022-08-04T06:52:46.279Z,97764.59
2022-08-04T06:55:14.388Z,97762.80
2022-08-04T06:57:45.334Z,97761.46
2022-08-04T07:00:16.783Z,97762.44
2022-08-04T07:02:48.353Z,97761.34
2022-08-04T07:05:18.341Z,97759.37
2022-08-04T07:07:58.162Z,97759.03
2022-08-04T07:10:31.004Z,97754.17
2022-08-04T07:13:01.897Z,97753.46
2022-08-04T07:15:31.539Z,97753.25
2022-08-04T07:18:04.920Z,97752.88
2022-08-04T07:20:36.571Z,97751.06
2022-08-04T07:23:06.751Z,97748.17
2022-08-04T07:26:12.189Z,97748.08
2022-08-04T07:28:27.532Z,97743.58
2022-08-04T07:30:57.665Z,97744.77
2022-08-04T07:33:27.401Z,97739.85
2022-08-04T07:36:09.651Z,97735.93
2022-08-04T07:38:50.721Z,97735.95
2022-08-04T07:41:39.368Z,97730.39
2022-08-04T07:44:08.897Z,97727.74
2022-08-04T07:46:37.889Z,97732.23
2022-08-04T07:49:06.678Z,97730.39
2022-08-04T07:51:37.021Z,97729.25
2022-08-04T07:54:07.828Z,97722.79
2022-08-04T07:56:38.153Z,97722.16
2022-08-04T07:59:06.972Z,97724.32
2022-08-04T08:01:37.399Z,97726.64
2022-08-04T08:04:08.320Z,97724.68
2022-08-04T08:06:43.143Z,97725.31
2022-08-04T08:09:14.930Z,97726.25
2022-08-04T08:12:35.251Z,97724.18
2022-08-04T08:14:41.616Z,97720.73
2022-08-04T08:17:09.956Z,97721.23
2022-08-04T08:19:38.601Z,97719.66
2022-08-04T08:22:07.148Z,97715.11
2022-08-04T08:24:37.284Z,97716.06
2022-08-04T08:27:07.470Z,97712.48
2022-08-04T08:29:36.314Z,97711.64
2022-08-04T08:32:08.531Z,97710.91
2022-08-04T08:34:39.072Z,97710.66
2022-08-04T08:37:45.485Z,97712.00
2022-08-04T08:40:16.750Z,97709.67
2022-08-04T08:44:00.214Z,97707.82
2022-08-04T08:46:38.843Z,97704.64
2022-08-04T08:50:02.514Z,97708.99
2022-08-04T08:53:03.234Z,97712.50
2022-08-04T08:55:52.501Z,97708.80
2022-08-04T08:58:46.239Z,97710.70
2022-08-04T09:01:44.552Z,97708.83
2022-08-04T09:04:49.865Z,97707.42
2022-08-04T09:07:43.209Z,97701.52
2022-08-04T09:10:26.563Z,97700.84
2022-08-04T09:13:10.806Z,97700.33
2022-08-04T09:15:54.410Z,97703.88
2022-08-04T09:18:34.501Z,97698.05
2022-08-04T09:21:17.798Z,97697.91
2022-08-04T09:23:45.952Z,97700.45
2022-08-04T09:26:36.618Z,97701.63
2022-08-04T09:29:30.843Z,97696.54
2022-08-04T09:32:22.447Z,97693.34
2022-08-04T09:35:19.416Z,97691.44
2022-08-04T09:38:06.105Z,97694.41
2022-08-04T09:41:30.026Z,97694.57
2022-08-04T09:44:52.905Z,97696.69
2022-08-04T09:47:43.128Z,97701.45
2022-08-04T09:50:37.649Z,97701.24
2022-08-04T09:53:34.739Z,97699.02
2022-08-04T09:56:03.463Z,97690.92
2022-08-04T09:58:46.620Z,97688.28
2022-08-04T10:01:24.866Z,97684.09
2022-08-04T10:03:59.298Z,97683.50
2022-08-04T10:06:47.900Z,97684.63
2022-08-04T10:09:34.753Z,97674.30
2022-08-04T10:12:18.082Z,97670.79
2022-08-04T10:15:21.118Z,97664.98
2022-08-04T10:18:23.188Z,97662.98
2022-08-04T10:21:29.458Z,97659.35
2022-08-04T10:24:23.220Z,97659.73
2022-08-04T10:26:58.499Z,97662.05
2022-08-04T10:29:46.822Z,97661.77
2022-08-04T10:32:25.828Z,97661.27
2022-08-04T10:35:15.971Z,97654.27
2022-08-04T10:38:02.776Z,97653.15
2022-08-04T10:40:45.721Z,97650.69
2022-08-04T10:43:22.833Z,97653.48
2022-08-04T10:46:08.021Z,97650.00
2022-08-04T10:49:00.154Z,97639.94
2022-08-04T10:51:57.733Z,97638.38
2022-08-04T10:54:51.693Z,97637.07
2022-08-04T10:57:37.235Z,97638.45
2022-08-04T11:00:12.056Z,97639.73
2022-08-04T11:02:45.966Z,97637.39
2022-08-04T11:05:22.829Z,97638.42
2022-08-04T11:07:57.279Z,97633.80
2022-08-04T11:10:30.643Z,97635.00
2022-08-04T11:13:05.144Z,97636.11
2022-08-04T11:15:46.771Z,97631.15
2022-08-04T11:18:29.551Z,97634.30
2022-08-04T11:21:22.084Z,97630.72
2022-08-04T11:24:03.757Z,97632.43
2022-08-04T11:26:43.658Z,97629.66
2022-08-04T11:29:30.983Z,97625.04
2022-08-04T11:32:02.714Z,97622.46
2022-08-04T11:34:31.184Z,97621.08
2022-08-04T11:37:22.164Z,97621.80
2022-08-04T11:40:09.777Z,97620.91
2022-08-04T11:42:52.296Z,97619.27
2022-08-04T11:45:37.573Z,97616.63
2022-08-04T11:48:20.439Z,97613.89
2022-08-04T11:50:55.399Z,97612.66
2022-08-04T11:53:26.149Z,97610.08
2022-08-04T11:56:09.129Z,97611.56
2022-08-04T11:58:38.734Z,97611.50
2022-08-04T12:01:27.848Z,97607.85
2022-08-04T12:04:14.232Z,97609.83
2022-08-04T12:06:56.797Z,97606.55
2022-08-04T12:10:06.825Z,97611.38
2022-08-04T12:12:46.129Z,97615.73
2022-08-04T12:15:26.732Z,97612.29
2022-08-04T12:18:00.320Z,97608.02
2022-08-04T12:20:41.058Z,97600.55
2022-08-04T12:23:22.998Z,97596.51
2022-08-04T12:25:56.076Z,97596.72
2022-08-04T12:28:59.543Z,97595.31
2022-08-04T12:32:01.072Z,97593.39
2022-08-04T12:34:41.120Z,97589.48
2022-08-04T12:37:53.658Z,97586.54
2022-08-04T12:40:30.600Z,97585.16
2022-08-04T12:43:17.663Z,97584.93
2022-08-04T12:45:58.361Z,97581.41
2022-08-04T12:48:28.660Z,97590.15
2022-08-04T12:50:58.977Z,97580.91
2022-08-04T12:53:51.093Z,97578.16
2022-08-04T12:56:28.492Z,97571.61
2022-08-04T12:59:12.823Z,97568.87
2022-08-04T13:02:08.820Z,97569.27
2022-08-04T13:04:42.748Z,97571.87
2022-08-04T13:07:24.029Z,97570.40
2022-08-04T13:09:53.533Z,97570.42
2022-08-04T13:12:32.839Z,97565.27
2022-08-04T13:15:18.213Z,97564.92
2022-08-04T13:18:03.260Z,97561.92
2022-08-04T13:20:37.026Z,97563.02
2022-08-04T13:23:09.781Z,97560.94
2022-08-04T13:26:44.452Z,97560.41
2022-08-04T13:28:34.839Z,97560.20
2022-08-04T13:31:07.803Z,97557.09
2022-08-04T13:33:39.443Z,97553.89
2022-08-04T13:36:09.028Z,97553.50
2022-08-04T13:38:40.905Z,97557.02
2022-08-04T13:41:09.531Z,97560.90
2022-08-04T13:44:15.769Z,97559.36
2022-08-04T13:46:37.061Z,97556.69
2022-08-04T13:49:28.294Z,97550.43
2022-08-04T13:52:04.753Z,97554.26
2022-08-04T13:54:43.730Z,97553.13
2022-08-04T13:57:23.659Z,97548.83
2022-08-04T13:59:54.781Z,97546.27
2022-08-04T14:02:45.254Z,97543.73
2022-08-04T14:05:28.572Z,97545.54
2022-08-04T14:08:05.721Z,97549.52
2022-08-04T14:10:36.238Z,97548.41
2022-08-04T14:13:06.798Z,97545.75
2022-08-04T14:16:02.873Z,97540.33
2022-08-04T14:18:32.743Z,97539.68
2022-08-04T14:21:08.518Z,97534.71
2022-08-04T14:24:02.961Z,97535.34
2022-08-04T14:26:35.732Z,97531.62
2022-08-04T14:29:28.733Z,97531.44
2022-08-04T14:32:11.471Z,97532.98
2022-08-04T14:34:44.907Z,97526.78
2022-08-04T14:37:19.302Z,97528.55
2022-08-04T14:40:18.137Z,97534.14
2022-08-04T14:42:54.533Z,97529.55
2022-08-04T14:45:34.965Z,97531.33
2022-08-04T14:48:07.621Z,97534.96
2022-08-04T14:50:37.917Z,97534.08
2022-08-04T14:53:12.219Z,97532.83
2022-08-04T14:55:44.685Z,97530.15
2022-08-04T14:58:35.690Z,97533.24
2022-08-04T15:01:11.810Z,97533.05
2022-08-04T15:03:49.956Z,97529.95
2022-08-04T15:06:27.859Z,97532.32
2022-08-04T15:08:58.575Z,97531.45
2022-08-04T15:11:27.841Z,97527.90
2022-08-04T15:13:57.867Z,97526.39
2022-08-04T15:16:28.746Z,97524.37
2022-08-04T15:18:57.502Z,97520.30
2022-08-04T15:21:29.107Z,97519.30
2022-08-04T15:23:58.813Z,97521.59
2022-08-04T15:26:41.863Z,97516.64
2022-08-04T15:29:16.988Z,97512.74
2022-08-04T15:32:07.568Z,97512.06
2022-08-04T15:34:51.890Z,97514.70
2022-08-04T15:37:31.476Z,97512.95
2022-08-04T15:40:33.216Z,97510.40
2022-08-04T15:43:31.204Z,97508.84
2022-08-04T15:46:41.813Z,97506.44
2022-08-04T15:48:52.173Z,97507.00
2022-08-04T15:51:32.825Z,97510.96
2022-08-04T15:54:27.450Z,97517.20
2022-08-04T15:57:01.329Z,97513.56
2022-08-04T16:00:21.149Z,97510.16
2022-08-04T16:02:49.517Z,97508.17
2022-08-04T16:05:18.509Z,97509.90
2022-08-04T16:07:56.901Z,97512.51
2022-08-04T16:10:30.899Z,97511.92
2022-08-04T16:13:14.055Z,97512.77
2022-08-04T16:15:48.083Z,97510.02
2022-08-04T16:18:26.123Z,97507.11
2022-08-04T16:20:57.405Z,97507.35
2022-08-04T16:23:58.093Z,97510.36
2022-08-04T16:26:42.257Z,97511.27
2022-08-04T16:29:23.071Z,97509.34
2022-08-04T16:32:07.441Z,97510.64
2022-08-04T16:34:54.178Z,97515.92
2022-08-04T16:37:38.496Z,97515.45
2022-08-04T16:40:36.465Z,97513.38
2022-08-04T16:43:09.661Z,97511.61
2022-08-04T16:46:02.749Z,97510.09
2022-08-04T16:48:32.998Z,97511.23
2022-08-04T16:51:06.942Z,97510.00
2022-08-04T16:53:53.107Z,97513.38
2022-08-04T16:56:33.752Z,97515.35
2022-08-04T16:59:08.178Z,97512.17
2022-08-04T17:01:37.657Z,97517.34
2022-08-04T17:04:06.803Z,97515.41
2022-08-04T17:06:40.998Z,97516.17
2022-08-04T17:09:14.532Z,97516.97
2022-08-04T17:11:44.459Z,97518.94
2022-08-04T17:14:12.485Z,97520.23
2022-08-04T17:16:43.721Z,97520.13
2022-08-04T17:19:19.956Z,97527.33
2022-08-04T17:22:07.504Z,97527.98
2022-08-04T17:24:43.393Z,97532.08
2022-08-04T17:28:09.752Z,97534.89
2022-08-04T17:29:59.862Z,97537.91
2022-08-04T17:32:28.132Z,97539.18
2022-08-04T17:35:00.486Z,97540.34
2022-08-04T17:37:40.523Z,97544.94
2022-08-04T17:40:22.436Z,97543.50
2022-08-04T17:44:02.949Z,97549.65
2022-08-04T17:46:28.178Z,97547.86
2022-08-04T17:49:17.985Z,97546.79
2022-08-04T17:52:06.856Z,97549.08
2022-08-04T17:54:41.154Z,97553.33
2022-08-04T17:57:15.665Z,97553.33
2022-08-04T17:59:57.734Z,97554.14
2022-08-04T18:02:32.872Z,97556.66
2022-08-04T18:05:06.339Z,97557.96
2022-08-04T18:08:37.599Z,97560.20
2022-08-04T18:10:52.482Z,97563.79
2022-08-04T18:13:29.166Z,97569.01
2022-08-04T18:16:04.964Z,97572.69
2022-08-04T18:18:33.212Z,97575.81
2022-08-04T18:21:03.487Z,97577.77
2022-08-04T18:23:33.570Z,97579.15
2022-08-04T18:26:03.887Z,97584.28
2022-08-04T18:28:33.488Z,97582.68
2022-08-04T18:31:02.407Z,97582.21
2022-08-04T18:33:37.494Z,97581.17
2022-08-04T18:36:32.978Z,97589.27
2022-08-04T18:39:13.601Z,97593.69
2022-08-04T18:42:01.444Z,97596.27
2022-08-04T18:44:51.776Z,97602.89
2022-08-04T18:47:23.744Z,97604.36
2022-08-04T18:51:00.119Z,97608.44
2022-08-04T18:52:45.031Z,97610.56
2022-08-04T18:55:55.579Z,97609.57
2022-08-04T18:58:07.394Z,97617.59
2022-08-04T19:00:45.166Z,97618.48
2022-08-04T19:06:03.196Z,97620.35
2022-08-04T19:08:34.523Z,97623.11
2022-08-04T19:11:38.688Z,97626.00
2022-08-04T19:13:54.775Z,97628.58
2022-08-04T19:16:28.725Z,97631.19
2022-08-04T19:18:58.283Z,97632.50
2022-08-04T19:21:59.524Z,97631.73
2022-08-04T19:24:32.213Z,97630.23
2022-08-04T19:27:08.334Z,97629.95
2022-08-04T19:29:41.469Z,97632.20
2022-08-04T19:32:16.205Z,97633.69
2022-08-04T19:34:47.290Z,97641.27
2022-08-04T19:37:57.560Z,97643.23
2022-08-04T19:40:08.161Z,97643.46
2022-08-04T19:42:38.189Z,97641.36
2022-08-04T19:45:07.140Z,97646.21
2022-08-04T19:48:16.953Z,97645.81
2022-08-04T19:50:24.088Z,97647.77
2022-08-04T19:52:53.147Z,97645.04
2022-08-04T19:55:37.573Z,97644.95
2022-08-04T19:58:08.507Z,97643.72
2022-08-04T20:00:39.283Z,97645.90
2022-08-04T20:03:11.231Z,97643.85
2022-08-04T20:05:53.369Z,97647.22
2022-08-04T20:08:27.962Z,97644.52
2022-08-04T20:10:57.920Z,97645.71
2022-08-04T20:13:37.311Z,97650.10
2022-08-04T20:16:29.173Z,97650.71
2022-08-04T20:19:02.394Z,97649.13
2022-08-04T20:21:53.686Z,97650.19
2022-08-04T20:24:37.742Z,97650.52
2022-08-04T20:27:15.136Z,97651.64
2022-08-04T20:29:48.278Z,97652.11
2022-08-04T20:32:23.164Z,97654.27
2022-08-04T20:34:52.888Z,97654.34
2022-08-04T20:37:23.674Z,97654.75
2022-08-04T20:40:01.420Z,97657.71
2022-08-04T20:42:33.843Z,97657.10
2022-08-04T20:45:03.259Z,97659.92
2022-08-04T20:47:35.905Z,97661.82
2022-08-04T20:50:29.887Z,97663.94
2022-08-04T20:52:59.105Z,97660.69
2022-08-04T20:55:29.506Z,97664.27
2022-08-04T20:58:03.083Z,97666.19
2022-08-04T21:00:32.443Z,97667.79
2022-08-04T21:03:00.510Z,97668.05
2022-08-04T21:05:29.174Z,97665.11
2022-08-04T21:08:00.010Z,97662.40
2022-08-04T21:10:28.401Z,97657.60
2022-08-04T21:12:56.498Z,97657.03
2022-08-04T21:15:26.417Z,97659.08
2022-08-04T21:18:14.328Z,97661.19
2022-08-04T21:20:45.048Z,97662.16
2022-08-04T21:23:16.096Z,97663.10
2022-08-04T21:25:49.848Z,97663.81
2022-08-04T21:28:20.490Z,97663.61
2022-08-04T21:30:54.021Z,97666.23
2022-08-04T21:33:43.915Z,97667.76
2022-08-04T21:36:14.059Z,97668.23
2022-08-04T21:38:51.899Z,97668.19
2022-08-04T21:41:25.063Z,97670.64
2022-08-04T21:43:56.081Z,97670.33
2022-08-04T21:46:24.482Z,97670.83
2022-08-04T21:48:52.650Z,97669.59
2022-08-04T21:51:59.196Z,97665.38
2022-08-04T21:54:15.022Z,97667.94
2022-08-04T21:56:51.419Z,97670.04
2022-08-04T21:59:23.596Z,97670.67
2022-08-04T22:01:56.789Z,97671.41
2022-08-04T22:04:25.262Z,97671.16
2022-08-04T22:06:53.427Z,97673.90
2022-08-04T22:09:22.116Z,97671.81
2022-08-04T22:11:51.762Z,97671.81
2022-08-04T22:14:27.177Z,97672.29
2022-08-04T22:16:58.717Z,97667.95
2022-08-04T22:19:50.756Z,97664.50
2022-08-04T22:22:25.684Z,97662.30
2022-08-04T22:24:58.804Z,97665.55
2022-08-04T22:27:47.539Z,97668.73
2022-08-04T22:30:17.022Z,97665.70
2022-08-04T22:32:47.179Z,97666.84
2022-08-04T22:35:43.085Z,97666.74
2022-08-04T22:38:24.545Z,97665.43
2022-08-04T22:41:01.753Z,97669.27
2022-08-04T22:43:31.695Z,97670.41
2022-08-04T22:46:05.334Z,97667.45
2022-08-04T22:48:37.577Z,97670.64
2022-08-04T22:51:07.636Z,97671.23
2022-08-04T22:53:36.395Z,97673.93
2022-08-04T22:56:10.154Z,97674.98
2022-08-04T22:58:45.292Z,97673.06
2022-08-04T23:01:19.270Z,97669.61
2022-08-04T23:03:55.253Z,97670.72
2022-08-04T23:06:28.595Z,97671.17
2022-08-04T23:08:57.996Z,97673.74
2022-08-04T23:11:35.157Z,97673.00
2022-08-04T23:14:05.315Z,97673.23
2022-08-04T23:16:40.755Z,97673.63
2022-08-04T23:19:15.243Z,97671.05
2022-08-04T23:21:47.710Z,97671.80
2022-08-04T23:24:30.046Z,97667.95
2022-08-04T23:26:59.631Z,97666.86
2022-08-04T23:29:28.309Z,97666.27
2022-08-04T23:32:16.308Z,97670.77
2022-08-04T23:34:48.421Z,97667.85
2022-08-04T23:37:16.447Z,97670.83
2022-08-04T23:40:15.463Z,97673.05
2022-08-04T23:42:32.469Z,97672.69
2022-08-04T23:45:00.528Z,97668.79
2022-08-04T23:48:15.962Z,97670.17
2022-08-04T23:50:16.560Z,97670.02
2022-08-04T23:52:44.853Z,97674.82
2022-08-04T23:55:19.018Z,97680.02
2022-08-04T23:58:05.504Z,97678.27
